createdAt,value
2019-06-08T00:00:25.502Z,-86
2019-06-08T00:01:23.005Z,-86
2019-06-08T00:02:23.071Z,-87
2019-06-08T00:03:20.672Z,-86
2019-06-08T00:04:20.678Z,-85
2019-06-08T00:05:16.906Z,-86
2019-06-08T00:06:20.768Z,-87
2019-06-08T00:07:20.909Z,-87
2019-06-08T00:08:20.887Z,-87
2019-06-08T00:09:22.553Z,-87
2019-06-08T00:10:22.792Z,-87
2019-06-08T00:10:25.839Z,-87
2019-06-08T00:11:16.970Z,-87
2019-06-08T00:12:17.031Z,-86
2019-06-08T00:13:21.347Z,-87
2019-06-08T00:14:17.454Z,-87
2019-06-08T00:15:14.053Z,-87
2019-06-08T00:16:10.361Z,-87
2019-06-08T00:17:29.345Z,-87
2019-06-08T00:17:35.791Z,-87
2019-06-08T00:17:37.075Z,-87
2019-06-08T00:18:10.843Z,-86
2019-06-08T00:19:06.915Z,-87
2019-06-08T00:20:06.078Z,-86
2019-06-08T00:21:05.384Z,-87
2019-06-08T00:22:06.023Z,-87
2019-06-08T00:23:02.114Z,-87
2019-06-08T00:24:06.317Z,-87
2019-06-08T00:25:05.675Z,-87
2019-06-08T00:26:03.358Z,-87
2019-06-08T00:27:06.406Z,-87
2019-06-08T00:27:59.092Z,-87
2019-06-08T00:28:55.026Z,-87
2019-06-08T00:29:51.540Z,-88
2019-06-08T00:30:48.182Z,-87
2019-06-08T00:31:44.955Z,-86
2019-06-08T00:32:41.737Z,-86
2019-06-08T00:33:38.464Z,-87
2019-06-08T00:34:34.990Z,-86
2019-06-08T00:35:32.623Z,-87
2019-06-08T00:36:30.591Z,-87
2019-06-08T00:37:35.998Z,-87
2019-06-08T00:38:29.249Z,-86
2019-06-08T00:39:31.698Z,-87
2019-06-08T00:40:31.614Z,-87
2019-06-08T00:41:27.928Z,-87
2019-06-08T00:42:25.567Z,-87
2019-06-08T00:43:21.416Z,-87
2019-06-08T00:44:19.270Z,-86
2019-06-08T00:45:15.638Z,-86
2019-06-08T00:46:12.899Z,-87
2019-06-08T00:47:09.694Z,-87
2019-06-08T00:48:16.737Z,-87
2019-06-08T00:49:22.697Z,-86
2019-06-08T00:50:18.793Z,-88
2019-06-08T00:51:16.806Z,-87
2019-06-08T00:52:16.857Z,-86
2019-06-08T00:53:13.631Z,-87
2019-06-08T00:54:09.240Z,-86
2019-06-08T00:55:05.673Z,-86
2019-06-08T00:56:02.805Z,-86
2019-06-08T00:57:01.064Z,-88
2019-06-08T00:57:56.553Z,-86
2019-06-08T00:58:56.067Z,-87
2019-06-08T00:59:58.045Z,-86
2019-06-08T01:00:55.334Z,-86
2019-06-08T01:01:54.766Z,-87
2019-06-08T01:02:50.459Z,-86
2019-06-08T01:03:50.537Z,-86
2019-06-08T01:04:49.558Z,-87
2019-06-08T01:05:45.181Z,-86
2019-06-08T01:06:48.035Z,-87
2019-06-08T01:07:44.633Z,-87
2019-06-08T01:08:50.858Z,-87
2019-06-08T01:09:49.179Z,-87
2019-06-08T01:10:47.813Z,-87
2019-06-08T01:11:40.697Z,-87
2019-06-08T01:12:40.572Z,-86
2019-06-08T01:13:39.493Z,-87
2019-06-08T01:14:34.992Z,-86
2019-06-08T01:15:34.249Z,-88
2019-06-08T01:16:29.248Z,-87
2019-06-08T01:17:25.106Z,-87
2019-06-08T01:18:22.964Z,-87
2019-06-08T01:19:17.478Z,-86
2019-06-08T01:20:30.270Z,-85
2019-06-08T01:21:27.762Z,-87
2019-06-08T01:22:23.710Z,-87
2019-06-08T01:23:23.427Z,-87
2019-06-08T01:24:23.861Z,-87
2019-06-08T01:25:25.810Z,-87
2019-06-08T01:26:22.375Z,-87
2019-06-08T01:27:19.963Z,-87
2019-06-08T01:28:19.922Z,-86
2019-06-08T01:29:15.125Z,-86
2019-06-08T01:30:20.005Z,-87
2019-06-08T01:31:14.479Z,-87
2019-06-08T01:32:09.852Z,-87
2019-06-08T01:33:06.341Z,-87
2019-06-08T01:34:06.137Z,-87
2019-06-08T01:35:01.885Z,-87
2019-06-08T01:36:02.516Z,-88
2019-06-08T01:37:01.489Z,-87
2019-06-08T01:37:54.722Z,-87
2019-06-08T01:38:56.195Z,-87
2019-06-08T01:40:00.690Z,-88
2019-06-08T01:41:07.374Z,-87
2019-06-08T01:42:06.567Z,-87
2019-06-08T01:43:02.470Z,-86
2019-06-08T01:43:58.052Z,-86
2019-06-08T01:44:54.440Z,-87
2019-06-08T01:45:50.692Z,-86
2019-06-08T01:46:49.061Z,-87
2019-06-08T01:47:49.357Z,-89
2019-06-08T01:48:42.115Z,-88
2019-06-08T01:49:39.921Z,-86
2019-06-08T01:50:38.119Z,-87
2019-06-08T01:51:34.691Z,-86
2019-06-08T01:52:30.914Z,-87
2019-06-08T01:53:29.366Z,-86
2019-06-08T01:54:29.755Z,-86
2019-06-08T01:55:27.028Z,-88
2019-06-08T01:56:24.953Z,-86
2019-06-08T01:57:20.707Z,-87
2019-06-08T01:58:20.677Z,-87
2019-06-08T01:59:15.945Z,-86
2019-06-08T02:00:29.833Z,-87
2019-06-08T02:00:29.864Z,-87
2019-06-08T02:00:32.563Z,-87
2019-06-08T02:01:09.176Z,-87
2019-06-08T02:02:08.555Z,-86
2019-06-08T02:03:07.421Z,-87
2019-06-08T02:04:02.491Z,-87
2019-06-08T02:05:01.378Z,-87
2019-06-08T02:06:32.438Z,-86
2019-06-08T02:07:32.478Z,-86
2019-06-08T02:08:28.737Z,-86
2019-06-08T02:10:26.629Z,-87
2019-06-08T02:11:26.694Z,-86
2019-06-08T02:12:26.723Z,-86
2019-06-08T02:13:26.790Z,-88
2019-06-08T02:14:23.039Z,-87
2019-06-08T02:15:20.365Z,-87
2019-06-08T02:16:19.543Z,-87
2019-06-08T02:17:20.100Z,-87
2019-06-08T02:18:35.119Z,-86
2019-06-08T02:18:36.373Z,-86
2019-06-08T02:18:41.018Z,-86
2019-06-08T02:19:19.464Z,-86
2019-06-08T02:20:19.313Z,-87
2019-06-08T02:21:19.831Z,-87
2019-06-08T02:22:18.035Z,-87
2019-06-08T02:23:31.040Z,-86
2019-06-08T02:24:27.288Z,-87
2019-06-08T02:25:22.986Z,-87
2019-06-08T02:26:19.762Z,-87
2019-06-08T02:27:19.909Z,-86
2019-06-08T02:28:15.580Z,-86
2019-06-08T02:29:12.807Z,-87
2019-06-08T02:30:14.996Z,-86
2019-06-08T02:31:11.762Z,-86
2019-06-08T02:32:13.581Z,-86
2019-06-08T02:33:09.469Z,-87
2019-06-08T02:34:07.255Z,-86
2019-06-08T02:35:03.995Z,-87
2019-06-08T02:36:07.882Z,-86
2019-06-08T02:37:05.779Z,-88
2019-06-08T02:38:04.793Z,-88
2019-06-08T02:39:01.963Z,-87
2019-06-08T02:39:58.609Z,-87
2019-06-08T02:40:53.929Z,-87
2019-06-08T02:41:51.742Z,-86
2019-06-08T02:42:48.948Z,-86
2019-06-08T02:43:44.522Z,-88
2019-06-08T02:44:40.679Z,-87
2019-06-08T02:45:39.920Z,-87
2019-06-08T02:46:35.465Z,-87
2019-06-08T02:47:32.437Z,-86
2019-06-08T02:48:31.427Z,-86
2019-06-08T02:49:29.079Z,-87
2019-06-08T02:50:30.281Z,-86
2019-06-08T02:51:24.983Z,-86
2019-06-08T02:52:20.346Z,-86
2019-06-08T02:53:15.689Z,-86
2019-06-08T02:54:23.207Z,-86
2019-06-08T02:55:18.663Z,-87
2019-06-08T02:56:15.396Z,-87
2019-06-08T02:57:21.016Z,-87
2019-06-08T02:58:17.221Z,-87
2019-06-08T02:59:25.954Z,-87
2019-06-08T03:00:20.130Z,-87
2019-06-08T03:01:19.129Z,-87
2019-06-08T03:02:16.721Z,-88
2019-06-08T03:03:13.730Z,-87
2019-06-08T03:04:14.429Z,-87
2019-06-08T03:05:11.162Z,-87
2019-06-08T03:06:08.762Z,-87
2019-06-08T03:07:06.600Z,-86
2019-06-08T03:08:04.465Z,-87
2019-06-08T03:08:59.800Z,-86
2019-06-08T03:09:56.334Z,-87
2019-06-08T03:10:52.383Z,-87
2019-06-08T03:11:49.414Z,-87
2019-06-08T03:12:46.183Z,-86
2019-06-08T03:13:43.267Z,-87
2019-06-08T03:14:39.624Z,-86
2019-06-08T03:15:38.625Z,-87
2019-06-08T03:16:33.336Z,-87
2019-06-08T03:17:29.094Z,-86
2019-06-08T03:18:28.737Z,-86
2019-06-08T03:19:22.674Z,-87
2019-06-08T03:20:17.130Z,-87
2019-06-08T03:21:20.537Z,-87
2019-06-08T03:22:21.876Z,-86
2019-06-08T03:23:19.038Z,-86
2019-06-08T03:24:14.318Z,-87
2019-06-08T03:25:11.393Z,-87
2019-06-08T03:26:06.838Z,-87
2019-06-08T03:27:03.041Z,-86
2019-06-08T03:28:01.572Z,-87
2019-06-08T03:29:01.796Z,-87
2019-06-08T03:30:17.751Z,-87
2019-06-08T03:30:17.911Z,-87
2019-06-08T03:30:19.714Z,-87
2019-06-08T03:31:04.749Z,-87
2019-06-08T03:32:04.078Z,-86
2019-06-08T03:33:05.354Z,-86
2019-06-08T03:34:03.662Z,-87
2019-06-08T03:34:59.910Z,-87
2019-06-08T03:36:02.352Z,-87
2019-06-08T03:37:04.318Z,-86
2019-06-08T03:38:03.875Z,-87
2019-06-08T03:39:03.621Z,-87
2019-06-08T03:40:01.366Z,-86
2019-06-08T03:41:07.273Z,-87
2019-06-08T03:42:05.170Z,-87
2019-06-08T03:43:03.256Z,-87
2019-06-08T03:44:03.494Z,-87
2019-06-08T03:45:08.598Z,-86
2019-06-08T03:46:12.652Z,-85
2019-06-08T03:47:12.909Z,-86
2019-06-08T03:48:09.134Z,-87
2019-06-08T03:49:05.298Z,-87
2019-06-08T03:50:02.055Z,-87
2019-06-08T03:51:00.560Z,-86
2019-06-08T03:51:56.989Z,-86
2019-06-08T03:52:52.549Z,-87
2019-06-08T03:53:48.030Z,-87
2019-06-08T03:54:45.266Z,-86
2019-06-08T03:55:47.244Z,-85
2019-06-08T03:56:47.086Z,-87
2019-06-08T03:57:46.475Z,-87
2019-06-08T03:58:47.791Z,-87
2019-06-08T03:59:47.986Z,-86
2019-06-08T04:00:56.387Z,-87
2019-06-08T04:01:52.190Z,-87
2019-06-08T04:02:50.277Z,-87
2019-06-08T04:03:44.477Z,-87
2019-06-08T04:04:41.750Z,-86
2019-06-08T04:05:40.250Z,-87
2019-06-08T04:06:39.950Z,-87
2019-06-08T04:07:39.928Z,-87
2019-06-08T04:08:35.261Z,-86
2019-06-08T04:09:34.110Z,-86
2019-06-08T04:10:31.111Z,-87
2019-06-08T04:11:26.546Z,-87
2019-06-08T04:12:28.073Z,-87
2019-06-08T04:13:24.726Z,-87
2019-06-08T04:14:20.329Z,-87
2019-06-08T04:15:18.137Z,-87
2019-06-08T04:16:18.117Z,-86
2019-06-08T04:17:18.931Z,-88
2019-06-08T04:18:14.097Z,-87
2019-06-08T04:19:11.217Z,-87
2019-06-08T04:20:11.893Z,-87
2019-06-08T04:21:17.488Z,-87
2019-06-08T04:22:12.980Z,-86
2019-06-08T04:23:08.385Z,-86
2019-06-08T04:24:13.275Z,-87
2019-06-08T04:25:09.346Z,-86
2019-06-08T04:26:05.655Z,-87
2019-06-08T04:27:00.843Z,-87
2019-06-08T04:27:59.888Z,-86
2019-06-08T04:28:53.232Z,-86
2019-06-08T04:29:53.898Z,-87
2019-06-08T04:30:50.794Z,-88
2019-06-08T04:31:48.004Z,-87
2019-06-08T04:32:44.919Z,-86
2019-06-08T04:33:40.361Z,-86
2019-06-08T04:34:45.561Z,-86
2019-06-08T04:35:42.565Z,-87
2019-06-08T04:36:41.257Z,-87
2019-06-08T04:37:40.305Z,-87
2019-06-08T04:38:34.979Z,-88
2019-06-08T04:39:38.255Z,-87
2019-06-08T04:40:34.446Z,-87
2019-06-08T04:41:38.499Z,-87
2019-06-08T04:42:35.432Z,-87
2019-06-08T04:43:32.518Z,-87
2019-06-08T04:44:28.838Z,-87
2019-06-08T04:45:25.561Z,-87
2019-06-08T04:46:25.683Z,-86
2019-06-08T04:47:21.762Z,-87
2019-06-08T04:48:17.229Z,-87
2019-06-08T04:49:13.267Z,-87
2019-06-08T04:50:22.446Z,-87
2019-06-08T04:50:23.223Z,-87
2019-06-08T04:51:09.705Z,-87
2019-06-08T04:52:09.045Z,-87
2019-06-08T04:53:08.129Z,-88
2019-06-08T04:54:09.214Z,-87
2019-06-08T04:55:06.732Z,-87
2019-06-08T04:56:08.942Z,-87
2019-06-08T04:57:06.014Z,-88
2019-06-08T04:58:05.009Z,-87
2019-06-08T04:59:12.210Z,-87
2019-06-08T05:00:13.145Z,-88
2019-06-08T05:01:04.549Z,-88
2019-06-08T05:01:59.899Z,-87
2019-06-08T05:02:56.448Z,-87
2019-06-08T05:03:52.994Z,-86
2019-06-08T05:04:58.316Z,-87
2019-06-08T05:05:58.397Z,-87
2019-06-08T05:06:56.149Z,-86
2019-06-08T05:07:54.277Z,-87
2019-06-08T05:09:00.401Z,-88
2019-06-08T05:09:55.773Z,-88
2019-06-08T05:10:53.830Z,-86
2019-06-08T05:11:49.976Z,-87
2019-06-08T05:12:47.709Z,-87
2019-06-08T05:13:54.309Z,-87
2019-06-08T05:14:50.551Z,-86
2019-06-08T05:15:50.229Z,-86
2019-06-08T05:16:47.453Z,-88
2019-06-08T05:17:45.621Z,-88
2019-06-08T05:18:41.438Z,-85
2019-06-08T05:19:43.645Z,-88
2019-06-08T05:20:43.341Z,-87
2019-06-08T05:21:36.801Z,-87
2019-06-08T05:22:32.142Z,-87
2019-06-08T05:23:32.971Z,-87
2019-06-08T05:24:26.594Z,-86
2019-06-08T05:25:27.602Z,-87
2019-06-08T05:26:30.152Z,-86
2019-06-08T05:27:26.570Z,-87
2019-06-08T05:28:27.618Z,-88
2019-06-08T05:29:26.395Z,-87
2019-06-08T05:30:23.033Z,-88
2019-06-08T05:31:18.623Z,-88
2019-06-08T05:32:19.999Z,-88
2019-06-08T05:33:15.137Z,-88
2019-06-08T05:34:16.795Z,-87
2019-06-08T05:35:12.597Z,-88
2019-06-08T05:36:07.831Z,-87
2019-06-08T05:37:08.631Z,-87
2019-06-08T05:38:06.854Z,-87
2019-06-08T05:39:06.077Z,-86
2019-06-08T05:40:04.845Z,-88
2019-06-08T05:41:00.131Z,-88
2019-06-08T05:42:02.110Z,-86
2019-06-08T05:42:57.497Z,-88
2019-06-08T05:43:57.711Z,-87
2019-06-08T05:44:06.329Z,-87
2019-06-08T05:45:09.246Z,-88
2019-06-08T05:46:12.610Z,-87
2019-06-08T05:47:08.640Z,-88
2019-06-08T05:48:04.948Z,-88
2019-06-08T05:49:00.158Z,-87
2019-06-08T05:49:56.371Z,-86
2019-06-08T05:51:03.556Z,-87
2019-06-08T05:51:04.147Z,-87
2019-06-08T05:51:55.355Z,-87
2019-06-08T05:52:51.258Z,-87
2019-06-08T05:53:52.128Z,-87
2019-06-08T05:54:50.073Z,-86
2019-06-08T05:55:52.524Z,-87
2019-06-08T05:56:47.988Z,-87
2019-06-08T05:57:51.989Z,-88
2019-06-08T05:58:48.121Z,-88
2019-06-08T05:59:44.520Z,-88
2019-06-08T06:00:42.167Z,-87
2019-06-08T06:01:40.414Z,-88
2019-06-08T06:02:36.161Z,-88
2019-06-08T06:03:36.565Z,-88
2019-06-08T06:04:31.929Z,-87
2019-06-08T06:05:40.518Z,-88
2019-06-08T06:06:44.594Z,-87
2019-06-08T06:07:36.659Z,-87
2019-06-08T06:08:33.623Z,-87
2019-06-08T06:09:26.000Z,-87
2019-06-08T06:10:24.840Z,-88
2019-06-08T06:11:21.171Z,-88
2019-06-08T06:12:34.028Z,-88
2019-06-08T06:12:34.043Z,-88
2019-06-08T06:13:21.855Z,-88
2019-06-08T06:14:20.940Z,-88
2019-06-08T06:15:18.860Z,-87
2019-06-08T06:16:21.850Z,-86
2019-06-08T06:17:22.295Z,-87
2019-06-08T06:18:29.592Z,-87
2019-06-08T06:19:29.471Z,-89
2019-06-08T06:20:25.742Z,-87
2019-06-08T06:21:21.380Z,-87
2019-06-08T06:22:17.501Z,-87
2019-06-08T06:23:16.745Z,-91
2019-06-08T06:24:16.840Z,-91
2019-06-08T06:25:11.367Z,-90
2019-06-08T06:26:07.486Z,-89
2019-06-08T06:27:03.246Z,-91
2019-06-08T06:28:06.124Z,-90
2019-06-08T06:29:00.655Z,-92
2019-06-08T06:29:56.120Z,-90
2019-06-08T06:30:52.854Z,-90
2019-06-08T06:31:56.398Z,-91
2019-06-08T06:32:54.831Z,-90
2019-06-08T06:33:50.164Z,-91
2019-06-08T06:34:52.280Z,-91
2019-06-08T06:35:49.925Z,-91
2019-06-08T06:36:43.900Z,-91
2019-06-08T06:37:45.915Z,-91
2019-06-08T06:38:52.494Z,-90
2019-06-08T06:39:45.988Z,-91
2019-06-08T06:40:41.916Z,-90
2019-06-08T06:41:36.554Z,-90
2019-06-08T06:42:32.687Z,-90
2019-06-08T06:43:29.932Z,-91
2019-06-08T06:44:30.522Z,-90
2019-06-08T06:45:25.902Z,-90
2019-06-08T06:46:21.097Z,-91
2019-06-08T06:47:16.553Z,-91
2019-06-08T06:48:13.020Z,-90
2019-06-08T06:49:14.710Z,-89
2019-06-08T06:50:12.915Z,-90
2019-06-08T06:51:25.234Z,-90
2019-06-08T06:51:25.647Z,-90
2019-06-08T06:52:07.845Z,-92
2019-06-08T06:53:05.779Z,-90
2019-06-08T06:54:02.824Z,-90
2019-06-08T06:54:58.143Z,-91
2019-06-08T06:55:54.982Z,-91
2019-06-08T06:56:54.052Z,-90
2019-06-08T06:57:49.203Z,-90
2019-06-08T06:58:51.537Z,-90
2019-06-08T06:59:55.104Z,-90
2019-06-08T07:00:54.557Z,-89
2019-06-08T07:01:54.332Z,-91
2019-06-08T07:01:57.462Z,-91
2019-06-08T07:02:47.640Z,-90
2019-06-08T07:03:44.110Z,-91
2019-06-08T07:04:41.332Z,-90
2019-06-08T07:05:37.107Z,-91
2019-06-08T07:06:32.490Z,-90
2019-06-08T07:07:34.372Z,-90
2019-06-08T07:08:41.911Z,-89
2019-06-08T07:09:39.123Z,-90
2019-06-08T07:10:41.644Z,-91
2019-06-08T07:11:39.579Z,-93
2019-06-08T07:12:37.312Z,-92
2019-06-08T07:13:33.920Z,-90
2019-06-08T07:14:29.564Z,-86
2019-06-08T07:15:24.631Z,-88
2019-06-08T07:16:23.260Z,-88
2019-06-08T07:17:22.136Z,-89
2019-06-08T07:18:19.939Z,-91
2019-06-08T07:19:17.231Z,-90
2019-06-08T07:20:12.310Z,-89
2019-06-08T07:21:12.408Z,-90
2019-06-08T07:22:09.192Z,-90
2019-06-08T07:23:05.996Z,-89
2019-06-08T07:24:09.827Z,-89
2019-06-08T07:25:10.246Z,-88
2019-06-08T07:26:06.415Z,-89
2019-06-08T07:27:07.248Z,-91
2019-06-08T07:28:01.456Z,-90
2019-06-08T07:28:58.871Z,-93
2019-06-08T07:30:01.869Z,-92
2019-06-08T07:31:04.091Z,-91
2019-06-08T07:32:08.432Z,-89
2019-06-08T07:33:04.448Z,-92
2019-06-08T07:34:00.056Z,-90
2019-06-08T07:34:59.501Z,-92
2019-06-08T07:35:55.474Z,-92
2019-06-08T07:36:53.543Z,-90
2019-06-08T07:37:56.747Z,-91
2019-06-08T07:38:53.848Z,-93
2019-06-08T07:39:51.583Z,-91
2019-06-08T07:40:48.821Z,-91
2019-06-08T07:41:40.916Z,-94
2019-06-08T07:42:40.181Z,-92
2019-06-08T07:43:37.145Z,-92
2019-06-08T07:44:37.599Z,-92
2019-06-08T07:45:33.087Z,-94
2019-06-08T07:46:32.980Z,-91
2019-06-08T07:47:31.367Z,-90
2019-06-08T07:48:24.461Z,-88
2019-06-08T07:49:20.643Z,-88
2019-06-08T07:50:20.788Z,-90
2019-06-08T07:51:22.024Z,-89
2019-06-08T07:52:17.299Z,-89
2019-06-08T07:53:14.848Z,-89
2019-06-08T07:54:10.461Z,-88
2019-06-08T07:55:07.232Z,-89
2019-06-08T07:56:03.551Z,-89
2019-06-08T07:57:04.658Z,-90
2019-06-08T07:58:06.695Z,-89
2019-06-08T07:59:08.206Z,-90
2019-06-08T08:00:09.211Z,-90
2019-06-08T08:00:09.904Z,-90
2019-06-08T08:01:07.764Z,-88
2019-06-08T08:01:08.120Z,-88
2019-06-08T08:01:58.388Z,-89
2019-06-08T08:03:00.336Z,-90
2019-06-08T08:03:56.438Z,-89
2019-06-08T08:04:58.877Z,-89
2019-06-08T08:05:56.717Z,-88
2019-06-08T08:06:52.544Z,-89
2019-06-08T08:07:48.331Z,-89
2019-06-08T08:08:43.103Z,-88
2019-06-08T08:09:39.889Z,-88
2019-06-08T08:10:42.055Z,-89
2019-06-08T08:11:38.972Z,-89
2019-06-08T08:12:34.156Z,-90
2019-06-08T08:13:34.437Z,-89
2019-06-08T08:14:36.076Z,-88
2019-06-08T08:15:32.089Z,-88
2019-06-08T08:16:27.825Z,-89
2019-06-08T08:17:28.339Z,-88
2019-06-08T08:18:24.470Z,-89
2019-06-08T08:19:26.870Z,-90
2019-06-08T08:20:25.739Z,-89
2019-06-08T08:21:29.549Z,-88
2019-06-08T08:22:25.939Z,-88
2019-06-08T08:23:21.862Z,-89
2019-06-08T08:24:21.907Z,-88
2019-06-08T08:25:18.365Z,-88
2019-06-08T08:26:15.045Z,-88
2019-06-08T08:27:22.311Z,-88
2019-06-08T08:28:17.838Z,-89
2019-06-08T08:29:18.627Z,-88
2019-06-08T08:30:21.135Z,-88
2019-06-08T08:31:18.591Z,-87
2019-06-08T08:32:15.302Z,-88
2019-06-08T08:33:10.597Z,-88
2019-06-08T08:34:09.107Z,-87
2019-06-08T08:35:05.156Z,-88
2019-06-08T08:36:01.902Z,-89
2019-06-08T08:36:58.916Z,-87
2019-06-08T08:37:06.049Z,-87
2019-06-08T08:37:09.539Z,-87
2019-06-08T08:37:56.986Z,-88
2019-06-08T08:38:03.913Z,-88
2019-06-08T08:38:04.742Z,-88
2019-06-08T08:38:56.660Z,-88
2019-06-08T08:39:55.566Z,-89
2019-06-08T08:40:56.439Z,-88
2019-06-08T08:41:06.851Z,-88
2019-06-08T08:41:08.312Z,-88
2019-06-08T08:41:58.299Z,-87
2019-06-08T08:42:04.934Z,-87
2019-06-08T08:42:05.576Z,-87
2019-06-08T08:42:58.706Z,-87
2019-06-08T08:43:54.386Z,-87
2019-06-08T08:44:52.329Z,-88
2019-06-08T08:45:47.680Z,-89
2019-06-08T08:46:42.471Z,-87
2019-06-08T08:47:41.539Z,-88
2019-06-08T08:49:05.949Z,-88
2019-06-08T08:49:09.278Z,-88
2019-06-08T08:49:10.430Z,-88
2019-06-08T08:49:58.714Z,-87
2019-06-08T08:51:03.253Z,-88
2019-06-08T08:52:00.040Z,-87
2019-06-08T08:52:58.485Z,-87
2019-06-08T08:53:02.229Z,-87
2019-06-08T08:53:55.835Z,-88
2019-06-08T08:54:59.134Z,-88
2019-06-08T08:55:52.407Z,-87
2019-06-08T08:56:52.166Z,-87
2019-06-08T08:57:50.723Z,-87
2019-06-08T08:58:51.389Z,-88
2019-06-08T08:59:56.009Z,-87
2019-06-08T09:00:50.932Z,-89
2019-06-08T09:01:48.127Z,-86
2019-06-08T09:02:43.439Z,-85
2019-06-08T09:03:44.998Z,-84
2019-06-08T09:04:40.954Z,-84
2019-06-08T09:05:38.171Z,-85
2019-06-08T09:06:33.803Z,-86
2019-06-08T09:07:29.137Z,-84
2019-06-08T09:08:30.196Z,-85
2019-06-08T09:09:28.683Z,-84
2019-06-08T09:10:22.063Z,-85
2019-06-08T09:11:21.531Z,-85
2019-06-08T09:12:18.237Z,-84
2019-06-08T09:13:19.391Z,-85
2019-06-08T09:14:18.191Z,-85
2019-06-08T09:15:12.139Z,-85
2019-06-08T09:16:14.043Z,-85
2019-06-08T09:17:09.911Z,-86
2019-06-08T09:18:08.095Z,-85
2019-06-08T09:19:04.437Z,-86
2019-06-08T09:20:03.613Z,-85
2019-06-08T09:21:00.338Z,-84
2019-06-08T09:21:02.887Z,-84
2019-06-08T09:21:54.352Z,-85
2019-06-08T09:22:56.577Z,-85
2019-06-08T09:23:03.073Z,-85
2019-06-08T09:23:10.113Z,-85
2019-06-08T09:23:48.939Z,-86
2019-06-08T09:24:48.629Z,-85
2019-06-08T09:25:44.611Z,-87
2019-06-08T09:26:49.346Z,-85
2019-06-08T09:27:44.388Z,-87
2019-06-08T09:28:47.181Z,-85
2019-06-08T09:29:42.820Z,-86
2019-06-08T09:30:42.012Z,-87
2019-06-08T09:31:39.729Z,-86
2019-06-08T09:32:38.250Z,-85
2019-06-08T09:33:38.673Z,-85
2019-06-08T09:34:31.901Z,-84
2019-06-08T09:35:30.368Z,-86
2019-06-08T09:36:23.012Z,-85
2019-06-08T09:37:19.408Z,-85
2019-06-08T09:38:20.170Z,-86
2019-06-08T09:39:18.537Z,-86
2019-06-08T09:40:13.506Z,-84
2019-06-08T09:41:12.725Z,-85
2019-06-08T09:42:09.221Z,-86
2019-06-08T09:43:14.406Z,-84
2019-06-08T09:44:11.976Z,-84
2019-06-08T09:45:09.395Z,-84
2019-06-08T09:46:09.202Z,-84
2019-06-08T09:47:09.468Z,-83
2019-06-08T09:47:12.394Z,-83
2019-06-08T09:48:03.992Z,-85
2019-06-08T09:49:11.879Z,-85
2019-06-08T09:50:09.228Z,-84
2019-06-08T09:51:12.989Z,-84
2019-06-08T09:52:11.781Z,-84
2019-06-08T09:53:23.080Z,-86
2019-06-08T09:53:24.340Z,-86
2019-06-08T09:53:26.819Z,-86
2019-06-08T09:54:08.533Z,-83
2019-06-08T09:54:12.725Z,-83
2019-06-08T09:55:05.012Z,-83
2019-06-08T09:56:03.930Z,-84
2019-06-08T09:57:03.564Z,-83
2019-06-08T09:58:01.897Z,-83
2019-06-08T09:58:06.647Z,-83
2019-06-08T09:58:11.513Z,-83
2019-06-08T09:59:01.352Z,-82
2019-06-08T09:59:06.068Z,-82
2019-06-08T09:59:10.695Z,-82
2019-06-08T09:59:57.157Z,-83
2019-06-08T10:01:04.236Z,-84
2019-06-08T10:02:05.092Z,-84
2019-06-08T10:02:07.405Z,-84
2019-06-08T10:02:12.427Z,-84
2019-06-08T10:02:58.855Z,-85
2019-06-08T10:03:56.705Z,-85
2019-06-08T10:04:52.120Z,-85
2019-06-08T10:05:48.447Z,-87
2019-06-08T10:06:44.656Z,-85
2019-06-08T10:07:40.980Z,-84
2019-06-08T10:08:38.770Z,-85
2019-06-08T10:09:38.130Z,-85
2019-06-08T10:10:34.664Z,-84
2019-06-08T10:11:30.498Z,-83
2019-06-08T10:12:28.229Z,-84
2019-06-08T10:13:23.695Z,-85
2019-06-08T10:14:20.074Z,-84
2019-06-08T10:15:17.898Z,-85
2019-06-08T10:16:18.354Z,-84
2019-06-08T10:17:18.163Z,-84
2019-06-08T10:17:21.079Z,-84
2019-06-08T10:18:30.905Z,-84
2019-06-08T10:19:28.661Z,-84
2019-06-08T10:20:28.770Z,-84
2019-06-08T10:21:25.376Z,-83
2019-06-08T10:22:22.204Z,-89
2019-06-08T10:23:30.802Z,-85
2019-06-08T10:23:33.514Z,-85
2019-06-08T10:23:34.269Z,-85
2019-06-08T10:24:17.558Z,-84
2019-06-08T10:25:13.394Z,-85
2019-06-08T10:26:09.225Z,-84
2019-06-08T10:27:08.018Z,-85
2019-06-08T10:28:08.968Z,-84
2019-06-08T10:28:14.003Z,-84
2019-06-08T10:28:15.918Z,-84
2019-06-08T10:29:03.291Z,-84
2019-06-08T10:30:00.017Z,-85
2019-06-08T10:31:00.923Z,-87
2019-06-08T10:31:55.233Z,-84
2019-06-08T10:32:51.075Z,-84
2019-06-08T10:33:48.768Z,-84
2019-06-08T10:34:47.979Z,-84
2019-06-08T10:35:43.901Z,-84
2019-06-08T10:36:43.437Z,-84
2019-06-08T10:37:40.122Z,-84
2019-06-08T10:38:38.371Z,-84
2019-06-08T10:38:41.281Z,-84
2019-06-08T10:39:32.528Z,-83
2019-06-08T10:40:32.722Z,-83
2019-06-08T10:41:27.817Z,-84
2019-06-08T10:42:22.257Z,-84
2019-06-08T10:43:21.497Z,-84
2019-06-08T10:44:18.929Z,-84
2019-06-08T10:45:18.491Z,-84
2019-06-08T10:46:20.684Z,-84
2019-06-08T10:47:16.332Z,-84
2019-06-08T10:48:17.781Z,-84
2019-06-08T10:49:14.210Z,-83
2019-06-08T10:50:15.281Z,-85
2019-06-08T10:51:13.106Z,-84
2019-06-08T10:52:12.189Z,-85
2019-06-08T10:53:16.303Z,-83
2019-06-08T10:54:17.401Z,-84
2019-06-08T10:55:22.102Z,-83
2019-06-08T10:56:18.886Z,-83
2019-06-08T10:57:18.127Z,-83
2019-06-08T10:58:19.393Z,-83
2019-06-08T10:59:14.116Z,-83
2019-06-08T11:00:18.031Z,-82
2019-06-08T11:00:20.936Z,-82
2019-06-08T11:00:23.704Z,-82
2019-06-08T11:01:11.134Z,-83
2019-06-08T11:01:13.325Z,-83
2019-06-08T11:02:07.838Z,-82
2019-06-08T11:02:13.803Z,-82
2019-06-08T11:03:05.449Z,-85
2019-06-08T11:04:01.566Z,-83
2019-06-08T11:04:58.817Z,-84
2019-06-08T11:05:04.725Z,-84
2019-06-08T11:05:11.703Z,-84
2019-06-08T11:05:53.430Z,-84
2019-06-08T11:06:52.263Z,-82
2019-06-08T11:07:50.184Z,-82
2019-06-08T11:08:45.840Z,-82
2019-06-08T11:09:50.633Z,-83
2019-06-08T11:10:47.447Z,-82
2019-06-08T11:11:41.923Z,-84
2019-06-08T11:12:39.785Z,-84
2019-06-08T11:13:36.134Z,-83
2019-06-08T11:14:34.640Z,-83
2019-06-08T11:15:31.384Z,-82
2019-06-08T11:16:28.689Z,-84
2019-06-08T11:17:24.214Z,-82
2019-06-08T11:18:19.837Z,-83
2019-06-08T11:19:19.101Z,-82
2019-06-08T11:20:27.568Z,-82
2019-06-08T11:20:30.215Z,-82
2019-06-08T11:21:19.837Z,-82
2019-06-08T11:22:18.082Z,-83
2019-06-08T11:23:13.244Z,-82
2019-06-08T11:24:23.820Z,-84
2019-06-08T11:24:24.425Z,-84
2019-06-08T11:24:25.235Z,-84
2019-06-08T11:25:19.733Z,-84
2019-06-08T11:26:19.710Z,-85
2019-06-08T11:26:23.972Z,-85
2019-06-08T11:26:24.413Z,-85
2019-06-08T11:27:12.874Z,-83
2019-06-08T11:28:14.896Z,-83
2019-06-08T11:28:15.372Z,-83
2019-06-08T11:29:11.776Z,-84
2019-06-08T11:29:13.902Z,-84
2019-06-08T11:30:11.477Z,-83
2019-06-08T11:30:20.114Z,-83
2019-06-08T11:30:23.455Z,-83
2019-06-08T11:31:03.869Z,-84
2019-06-08T11:31:59.965Z,-84
2019-06-08T11:32:59.761Z,-83
2019-06-08T11:33:54.999Z,-83
2019-06-08T11:34:51.710Z,-84
2019-06-08T11:35:52.222Z,-84
2019-06-08T11:36:51.466Z,-83
2019-06-08T11:37:48.824Z,-83
2019-06-08T11:38:48.979Z,-83
2019-06-08T11:39:45.756Z,-83
2019-06-08T11:40:44.341Z,-84
2019-06-08T11:41:40.494Z,-83
2019-06-08T11:42:38.805Z,-83
2019-06-08T11:43:32.327Z,-84
2019-06-08T11:44:28.936Z,-84
2019-06-08T11:45:24.805Z,-83
2019-06-08T11:46:21.830Z,-81
2019-06-08T11:47:18.153Z,-83
2019-06-08T11:48:13.172Z,-83
2019-06-08T11:49:14.505Z,-83
2019-06-08T11:50:12.955Z,-83
2019-06-08T11:52:35.107Z,-82
2019-06-08T11:54:54.367Z,-84
2019-06-08T11:55:52.125Z,-83
2019-06-08T11:56:49.579Z,-84
2019-06-08T11:57:55.145Z,-85
2019-06-08T11:58:53.258Z,-83
2019-06-08T12:00:14.959Z,-84
2019-06-08T12:00:22.369Z,-84
2019-06-08T12:00:25.199Z,-84
2019-06-08T12:01:13.729Z,-84
2019-06-08T12:02:14.031Z,-84
2019-06-08T12:03:14.358Z,-86
2019-06-08T12:04:11.941Z,-84
2019-06-08T12:05:12.455Z,-85
2019-06-08T12:06:09.462Z,-86
2019-06-08T12:07:10.446Z,-86
2019-06-08T12:08:13.447Z,-85
2019-06-08T12:09:18.917Z,-85
2019-06-08T12:10:17.940Z,-85
2019-06-08T12:11:18.192Z,-85
2019-06-08T12:11:23.044Z,-85
2019-06-08T12:12:22.904Z,-85
2019-06-08T12:13:24.532Z,-85
2019-06-08T12:14:29.059Z,-85
2019-06-08T12:14:47.681Z,-85
2019-06-08T12:15:45.593Z,-86
2019-06-08T12:16:43.438Z,-84
2019-06-08T12:17:50.381Z,-85
2019-06-08T12:18:58.573Z,-85
2019-06-08T12:19:57.729Z,-86
2019-06-08T12:20:54.262Z,-86
2019-06-08T12:21:54.324Z,-85
2019-06-08T12:22:58.112Z,-86
2019-06-08T12:24:02.268Z,-86
2019-06-08T12:25:06.162Z,-85
2019-06-08T12:26:04.594Z,-86